createdAt,value
2022-11-27T00:01:19.154Z,10.30
2022-11-27T00:03:46.517Z,11.47
2022-11-27T00:06:15.756Z,10.23
2022-11-27T00:08:43.664Z,14.30
2022-11-27T00:11:13.116Z,10.93
2022-11-27T00:13:40.297Z,9.83
2022-11-27T00:16:07.971Z,9.73
2022-11-27T00:18:35.425Z,15.67
2022-11-27T00:21:06.472Z,9.77
2022-11-27T00:23:34.252Z,9.83
2022-11-27T00:26:01.396Z,10.20
2022-11-27T00:28:28.882Z,11.87
2022-11-27T00:30:59.787Z,10.47
2022-11-27T00:33:26.952Z,15.93
2022-11-27T00:35:54.059Z,13.70
2022-11-27T00:38:21.279Z,11.60
2022-11-27T00:40:48.751Z,11.83
2022-11-27T00:43:15.810Z,10.17
2022-11-27T00:45:42.873Z,10.60
2022-11-27T00:48:09.907Z,12.60
2022-11-27T00:50:36.973Z,9.63
2022-11-27T00:53:04.084Z,14.00
2022-11-27T00:55:31.137Z,10.47
2022-11-27T00:57:58.173Z,10.07
2022-11-27T01:00:25.301Z,13.03
2022-11-27T01:02:52.412Z,13.23
2022-11-27T01:05:19.500Z,10.10
2022-11-27T01:07:46.654Z,9.20
2022-11-27T01:10:13.772Z,9.53
2022-11-27T01:12:40.811Z,12.47
2022-11-27T01:15:08.211Z,11.67
2022-11-27T01:17:35.279Z,11.53
2022-11-27T01:20:02.348Z,13.57
2022-11-27T01:22:29.439Z,12.43
2022-11-27T01:24:56.481Z,11.97
2022-11-27T01:27:23.560Z,8.73
2022-11-27T01:29:50.610Z,10.33
2022-11-27T01:32:17.722Z,12.57
2022-11-27T01:34:44.773Z,10.30
2022-11-27T01:37:11.844Z,10.10
2022-11-27T01:39:38.893Z,8.63
2022-11-27T01:42:06.009Z,10.30
2022-11-27T01:44:33.019Z,8.43
2022-11-27T01:47:02.507Z,9.63
2022-11-27T01:49:33.642Z,10.50
2022-11-27T01:52:06.914Z,8.30
2022-11-27T01:54:46.272Z,11.03
2022-11-27T01:57:18.516Z,9.33
2022-11-27T01:59:46.905Z,8.60
2022-11-27T02:02:14.236Z,9.70
2022-11-27T02:04:41.587Z,11.63
2022-11-27T02:07:08.870Z,8.80
2022-11-27T02:09:36.041Z,9.03
2022-11-27T02:12:03.062Z,10.43
2022-11-27T02:14:38.633Z,12.40
2022-11-27T02:17:22.299Z,10.67
2022-11-27T02:20:00.224Z,6.83
2022-11-27T02:25:20.222Z,10.23
2022-11-27T02:27:58.456Z,8.07
2022-11-27T02:30:25.636Z,6.77
2022-11-27T02:32:52.665Z,6.53
2022-11-27T02:35:19.735Z,7.67
2022-11-27T02:37:58.833Z,6.73
2022-11-27T02:40:32.233Z,12.10
2022-11-27T02:42:59.255Z,8.20
2022-11-27T02:45:28.322Z,6.80
2022-11-27T02:47:56.685Z,7.33
2022-11-27T02:50:25.364Z,7.97
2022-11-27T02:52:53.939Z,7.23
2022-11-27T02:55:23.822Z,8.10
2022-11-27T02:57:53.420Z,10.13
2022-11-27T03:00:20.537Z,8.33
2022-11-27T03:02:50.509Z,10.10
2022-11-27T03:05:19.645Z,9.93
2022-11-27T03:07:52.973Z,7.83
2022-11-27T03:10:27.573Z,8.43
2022-11-27T03:12:54.678Z,7.57
2022-11-27T03:15:23.594Z,8.20
2022-11-27T03:17:54.317Z,6.97
2022-11-27T03:20:24.572Z,7.90
2022-11-27T03:22:53.351Z,5.90
2022-11-27T03:25:20.482Z,6.90
2022-11-27T03:27:56.449Z,10.97
2022-11-27T03:30:23.504Z,7.73
2022-11-27T03:32:50.644Z,7.33
2022-11-27T03:35:20.741Z,8.50
2022-11-27T03:37:48.228Z,7.73
2022-11-27T03:40:15.862Z,6.60
2022-11-27T03:42:42.890Z,6.60
2022-11-27T03:45:28.627Z,8.77
2022-11-27T03:47:58.832Z,8.37
2022-11-27T03:50:41.257Z,5.80
2022-11-27T03:53:21.825Z,5.87
2022-11-27T03:56:09.960Z,11.83
2022-11-27T03:58:39.724Z,6.53
2022-11-27T04:01:09.405Z,6.83
2022-11-27T04:03:36.770Z,6.30
2022-11-27T04:06:04.245Z,6.10
2022-11-27T04:08:31.684Z,10.00
2022-11-27T04:10:58.742Z,7.30
2022-11-27T04:13:25.804Z,8.53
2022-11-27T04:15:52.976Z,7.80
2022-11-27T04:18:20.017Z,6.17
2022-11-27T04:20:47.106Z,8.13
2022-11-27T04:23:14.197Z,5.90
2022-11-27T04:25:41.224Z,7.00
2022-11-27T04:28:08.348Z,7.37
2022-11-27T04:30:35.387Z,4.97
2022-11-27T04:33:02.490Z,5.23
2022-11-27T04:35:29.524Z,6.20
2022-11-27T04:37:59.900Z,7.37
2022-11-27T04:40:26.963Z,7.43
2022-11-27T04:42:54.100Z,4.97
2022-11-27T04:45:21.210Z,7.10
2022-11-27T04:47:48.479Z,6.47
2022-11-27T04:50:15.655Z,6.20
2022-11-27T04:52:42.695Z,5.37
2022-11-27T04:55:10.046Z,5.40
2022-11-27T04:57:37.096Z,6.63
2022-11-27T05:00:04.789Z,6.80
2022-11-27T05:02:31.909Z,4.60
2022-11-27T05:04:59.078Z,8.53
2022-11-27T05:07:26.230Z,5.60
2022-11-27T05:09:53.339Z,7.53
2022-11-27T05:12:20.407Z,6.60
2022-11-27T05:14:47.486Z,6.33
2022-11-27T05:17:14.591Z,8.30
2022-11-27T05:19:41.680Z,6.73
2022-11-27T05:22:08.753Z,5.27
2022-11-27T05:24:35.851Z,4.07
2022-11-27T05:27:03.056Z,5.90
2022-11-27T05:29:30.246Z,7.10
2022-11-27T05:31:57.414Z,3.80
2022-11-27T05:34:24.529Z,5.53
2022-11-27T05:36:51.571Z,6.03
2022-11-27T05:39:18.635Z,7.60
2022-11-27T05:41:45.711Z,8.20
2022-11-27T05:44:13.987Z,6.40
2022-11-27T05:46:43.373Z,5.53
2022-11-27T05:49:12.274Z,5.60
2022-11-27T05:51:39.432Z,3.93
2022-11-27T05:54:06.562Z,5.17
2022-11-27T05:56:33.690Z,4.73
2022-11-27T05:59:00.795Z,5.27
2022-11-27T06:01:28.297Z,5.83
2022-11-27T06:03:55.346Z,5.07
2022-11-27T06:06:22.492Z,6.00
2022-11-27T06:08:49.529Z,8.10
2022-11-27T06:11:21.133Z,3.60
2022-11-27T06:13:48.840Z,3.83
2022-11-27T06:16:20.587Z,13.73
2022-11-27T06:18:50.712Z,8.87
2022-11-27T06:21:18.109Z,4.43
2022-11-27T06:23:45.718Z,3.97
2022-11-27T06:26:12.842Z,10.27
2022-11-27T06:28:40.900Z,5.40
2022-11-27T06:31:13.097Z,6.97
2022-11-27T06:33:43.213Z,7.97
2022-11-27T06:36:10.328Z,11.40
2022-11-27T06:38:38.064Z,3.70
2022-11-27T06:41:05.144Z,10.80
2022-11-27T06:43:32.316Z,5.93
2022-11-27T06:45:59.907Z,7.90
2022-11-27T06:48:27.027Z,9.63
2022-11-27T06:50:54.079Z,8.37
2022-11-27T06:53:21.199Z,5.73
2022-11-27T06:55:48.312Z,4.37
2022-11-27T06:58:15.487Z,5.97
2022-11-27T07:00:42.560Z,6.80
2022-11-27T07:03:09.698Z,8.27
2022-11-27T07:05:37.084Z,4.03
2022-11-27T07:08:04.298Z,5.60
2022-11-27T07:10:33.999Z,6.53
2022-11-27T07:13:01.300Z,5.73
2022-11-27T07:15:28.758Z,5.97
2022-11-27T07:17:55.861Z,6.33
2022-11-27T07:20:22.907Z,5.53
2022-11-27T07:22:50.029Z,6.33
2022-11-27T07:25:17.162Z,7.27
2022-11-27T07:27:44.279Z,7.80
2022-11-27T07:30:11.541Z,7.00
2022-11-27T07:32:38.647Z,6.37
2022-11-27T07:35:06.350Z,6.80
2022-11-27T07:37:33.978Z,6.67
2022-11-27T07:40:02.945Z,5.80
2022-11-27T07:42:37.954Z,6.93
2022-11-27T07:45:05.470Z,6.73
2022-11-27T07:47:32.516Z,9.07
2022-11-27T07:50:00.410Z,6.37
2022-11-27T07:52:27.687Z,7.17
2022-11-27T07:54:54.813Z,5.20
2022-11-27T07:57:21.956Z,6.17
2022-11-27T07:59:49.027Z,7.20
2022-11-27T08:02:16.117Z,11.50
2022-11-27T08:04:43.624Z,7.40
2022-11-27T08:07:10.965Z,6.83
2022-11-27T08:09:39.341Z,13.97
2022-11-27T08:12:06.857Z,14.07
2022-11-27T08:14:33.928Z,9.43
2022-11-27T08:17:00.983Z,13.67
2022-11-27T08:19:28.127Z,7.53
2022-11-27T08:21:56.221Z,12.47
2022-11-27T08:24:23.267Z,10.40
2022-11-27T08:26:52.089Z,16.63
2022-11-27T08:29:19.136Z,13.33
2022-11-27T08:31:46.265Z,9.60
2022-11-27T08:34:13.546Z,15.00
2022-11-27T08:36:40.648Z,10.20
2022-11-27T08:39:07.784Z,9.40
2022-11-27T08:41:34.875Z,9.83
2022-11-27T08:44:06.697Z,11.37
2022-11-27T08:46:36.948Z,8.80
2022-11-27T08:49:04.017Z,11.03
2022-11-27T08:51:31.096Z,12.50
2022-11-27T08:53:58.146Z,10.37
2022-11-27T08:56:26.127Z,9.23
2022-11-27T08:58:53.445Z,8.80
2022-11-27T09:01:20.558Z,9.53
2022-11-27T09:03:48.352Z,11.00
2022-11-27T09:06:16.969Z,11.13
2022-11-27T09:08:44.343Z,11.07
2022-11-27T09:11:12.797Z,10.37
2022-11-27T09:13:40.359Z,12.93
2022-11-27T09:16:08.584Z,12.33
2022-11-27T09:18:35.735Z,11.70
2022-11-27T09:21:05.305Z,11.33
2022-11-27T09:23:32.504Z,13.40
2022-11-27T09:26:03.845Z,13.53
2022-11-27T09:28:31.820Z,13.60
2022-11-27T09:31:00.225Z,16.83
2022-11-27T09:33:28.164Z,18.17
2022-11-27T09:35:55.239Z,12.77
2022-11-27T09:38:23.651Z,13.33
2022-11-27T09:40:55.531Z,11.80
2022-11-27T09:43:30.450Z,13.37
2022-11-27T09:46:01.333Z,12.70
2022-11-27T09:48:32.875Z,16.10
2022-11-27T09:51:01.378Z,19.30
2022-11-27T09:53:31.443Z,14.87
2022-11-27T09:55:59.578Z,14.63
2022-11-27T09:58:36.514Z,11.77
2022-11-27T10:01:11.308Z,15.20
2022-11-27T10:03:38.865Z,16.07
2022-11-27T10:06:21.239Z,15.07
2022-11-27T10:09:00.641Z,15.50
2022-11-27T10:11:30.552Z,15.77
2022-11-27T10:14:03.339Z,15.60
2022-11-27T10:16:30.394Z,15.87
2022-11-27T10:19:19.412Z,14.00
2022-11-27T10:21:49.923Z,16.13
2022-11-27T10:24:21.880Z,17.13
2022-11-27T10:26:49.644Z,18.17
2022-11-27T10:29:47.119Z,17.70
2022-11-27T10:32:46.640Z,21.87
2022-11-27T10:35:07.776Z,19.47
2022-11-27T10:37:37.624Z,20.57
2022-11-27T10:40:13.332Z,22.07
2022-11-27T10:42:49.486Z,27.30
2022-11-27T10:45:28.208Z,21.33
2022-11-27T10:47:55.364Z,22.70
2022-11-27T10:50:22.436Z,27.63
2022-11-27T10:53:00.767Z,21.00
2022-11-27T10:55:46.369Z,24.30
2022-11-27T10:58:34.253Z,17.43
2022-11-27T11:01:06.861Z,18.80
2022-11-27T11:03:34.155Z,12.80
2022-11-27T11:06:21.532Z,14.73
2022-11-27T11:08:50.119Z,9.07
2022-11-27T11:11:25.786Z,7.83
2022-11-27T11:13:52.932Z,7.13
2022-11-27T11:16:24.604Z,5.93
2022-11-27T11:18:53.384Z,6.63
2022-11-27T11:21:30.548Z,5.60
2022-11-27T11:24:00.201Z,4.47
2022-11-27T11:26:56.660Z,8.43
2022-11-27T11:29:23.769Z,4.77
2022-11-27T11:31:50.925Z,4.17
2022-11-27T11:34:29.044Z,5.03
2022-11-27T11:37:02.257Z,3.20
2022-11-27T11:39:30.948Z,5.53
2022-11-27T11:41:58.528Z,7.90
2022-11-27T11:44:31.489Z,6.43
2022-11-27T11:46:58.566Z,4.40
2022-11-27T11:49:26.748Z,5.77
2022-11-27T11:51:53.773Z,6.13
2022-11-27T11:54:39.134Z,6.67
2022-11-27T11:57:10.287Z,4.73
2022-11-27T11:59:43.756Z,6.70
2022-11-27T12:02:21.433Z,5.70
2022-11-27T12:04:48.634Z,5.07
2022-11-27T12:07:34.351Z,6.23
2022-11-27T12:10:15.007Z,4.23
2022-11-27T12:13:02.299Z,4.67
2022-11-27T12:15:33.900Z,7.50
2022-11-27T12:18:19.420Z,6.27
2022-11-27T12:20:55.876Z,6.47
2022-11-27T12:23:32.916Z,4.77
2022-11-27T12:26:09.163Z,6.13
2022-11-27T12:28:58.987Z,7.50
2022-11-27T12:31:26.621Z,5.23
2022-11-27T12:34:12.453Z,4.50
2022-11-27T12:36:57.914Z,5.70
2022-11-27T12:39:41.198Z,4.37
2022-11-27T12:42:40.823Z,5.80
2022-11-27T12:45:25.531Z,8.30
2022-11-27T12:47:55.985Z,5.80
2022-11-27T12:50:43.110Z,5.73
2022-11-27T12:53:24.729Z,5.03
2022-11-27T12:56:01.144Z,6.17
2022-11-27T12:58:36.485Z,10.97
2022-11-27T13:01:26.415Z,4.20
2022-11-27T13:03:56.883Z,5.27
2022-11-27T13:06:26.901Z,5.83
2022-11-27T13:09:02.650Z,4.67
2022-11-27T13:11:33.143Z,4.33
2022-11-27T13:14:04.185Z,3.00
2022-11-27T13:16:34.850Z,4.60
2022-11-27T13:19:20.501Z,3.83
2022-11-27T13:21:48.356Z,4.67
2022-11-27T13:24:15.533Z,3.30
2022-11-27T13:26:57.784Z,5.93
2022-11-27T13:29:30.743Z,4.47
2022-11-27T13:31:59.568Z,3.53
2022-11-27T13:34:28.409Z,3.17
2022-11-27T13:36:57.666Z,6.07
2022-11-27T13:39:28.064Z,4.47
2022-11-27T13:42:10.060Z,2.97
2022-11-27T13:44:40.783Z,4.73
2022-11-27T13:47:19.731Z,4.83
2022-11-27T13:49:47.941Z,3.70
2022-11-27T13:52:16.435Z,4.77
2022-11-27T13:55:02.022Z,5.13
2022-11-27T13:57:30.132Z,5.53
2022-11-27T14:00:05.407Z,4.77
2022-11-27T14:02:41.453Z,5.93
2022-11-27T14:05:09.089Z,4.83
2022-11-27T14:07:38.415Z,5.37
2022-11-27T14:10:16.184Z,6.27
2022-11-27T14:12:43.514Z,4.03
2022-11-27T14:15:21.431Z,5.80
2022-11-27T14:17:49.902Z,5.30
2022-11-27T14:20:17.013Z,3.57
2022-11-27T14:23:10.067Z,6.30
2022-11-27T14:25:33.666Z,7.30
2022-11-27T14:28:04.594Z,5.47
2022-11-27T14:30:36.785Z,5.40
2022-11-27T14:33:04.477Z,6.53
2022-11-27T14:35:31.791Z,4.20
2022-11-27T14:38:09.151Z,6.77
2022-11-27T14:40:37.580Z,6.30
2022-11-27T14:43:08.609Z,6.40
2022-11-27T14:45:35.777Z,6.17
2022-11-27T14:48:03.341Z,7.13
2022-11-27T14:50:30.401Z,4.87
2022-11-27T14:52:57.911Z,6.33
2022-11-27T14:55:27.929Z,6.17
2022-11-27T14:57:58.792Z,5.87
2022-11-27T15:00:32.322Z,5.57
2022-11-27T15:03:09.381Z,5.07
2022-11-27T15:05:38.139Z,6.23
2022-11-27T15:08:09.804Z,6.40
2022-11-27T15:10:38.971Z,4.90
2022-11-27T15:13:06.585Z,6.57
2022-11-27T15:15:37.919Z,5.83
2022-11-27T15:18:06.924Z,5.40
2022-11-27T15:20:36.920Z,7.10
2022-11-27T15:23:04.233Z,4.40
2022-11-27T15:25:36.547Z,9.27
2022-11-27T15:28:04.224Z,4.47
2022-11-27T15:30:31.352Z,5.97
2022-11-27T15:32:58.477Z,6.10
2022-11-27T15:35:27.168Z,5.90
2022-11-27T15:37:55.349Z,6.40
2022-11-27T15:40:33.598Z,5.63
2022-11-27T15:43:00.704Z,5.93
2022-11-27T15:45:28.967Z,5.77
2022-11-27T15:48:02.617Z,8.07
2022-11-27T15:50:30.481Z,7.80
2022-11-27T15:52:57.755Z,8.37
2022-11-27T15:55:25.319Z,8.17
2022-11-27T15:57:52.438Z,7.23
2022-11-27T16:00:19.824Z,6.27
2022-11-27T16:02:46.944Z,5.43
2022-11-27T16:05:14.060Z,6.57
2022-11-27T16:07:41.158Z,5.43
2022-11-27T16:10:08.725Z,6.53
2022-11-27T16:12:35.866Z,7.17
2022-11-27T16:15:02.969Z,7.63
2022-11-27T16:17:30.041Z,6.83
2022-11-27T16:19:57.165Z,5.57
2022-11-27T16:22:24.370Z,6.37
2022-11-27T16:24:51.577Z,5.07
2022-11-27T16:27:18.647Z,5.93
2022-11-27T16:29:45.764Z,7.70
2022-11-27T16:32:13.264Z,7.37
2022-11-27T16:34:40.549Z,6.30
2022-11-27T16:37:07.795Z,7.17
2022-11-27T16:39:34.872Z,7.67
2022-11-27T16:42:01.915Z,6.93
2022-11-27T16:44:29.024Z,6.70
2022-11-27T16:46:56.085Z,7.47
2022-11-27T16:49:23.133Z,7.83
2022-11-27T16:51:50.230Z,7.90
2022-11-27T16:54:17.324Z,8.00
2022-11-27T16:56:44.445Z,6.27
2022-11-27T16:59:13.172Z,8.00
2022-11-27T17:01:41.535Z,9.10
2022-11-27T17:04:10.663Z,8.27
2022-11-27T17:06:39.159Z,8.57
2022-11-27T17:09:07.379Z,6.60
2022-11-27T17:11:35.648Z,9.90
2022-11-27T17:14:05.086Z,8.00
2022-11-27T17:16:32.370Z,8.87
2022-11-27T17:18:59.528Z,7.33
2022-11-27T17:21:27.846Z,9.37
2022-11-27T17:24:10.179Z,8.90
2022-11-27T17:26:45.096Z,9.23
2022-11-27T17:29:12.946Z,9.17
2022-11-27T17:31:40.180Z,8.43
2022-11-27T17:34:07.526Z,6.70
2022-11-27T17:36:37.057Z,6.80
2022-11-27T17:39:05.174Z,9.33
2022-11-27T17:41:33.189Z,6.50
2022-11-27T17:44:00.413Z,6.07
2022-11-27T17:46:28.650Z,7.97
2022-11-27T17:48:58.828Z,5.97
2022-11-27T17:51:26.358Z,5.43
2022-11-27T17:53:53.433Z,7.13
2022-11-27T17:56:20.918Z,5.83
2022-11-27T17:58:48.319Z,8.63
2022-11-27T18:01:17.002Z,5.87
2022-11-27T18:03:46.069Z,5.90
2022-11-27T18:06:13.756Z,8.77
2022-11-27T18:08:40.985Z,6.70
2022-11-27T18:11:09.281Z,12.37
2022-11-27T18:13:36.519Z,6.77
2022-11-27T18:16:04.608Z,5.77
2022-11-27T18:18:31.886Z,8.70
2022-11-27T18:20:59.688Z,6.13
2022-11-27T18:23:26.809Z,8.87
2022-11-27T18:25:53.898Z,6.37
2022-11-27T18:28:20.946Z,12.80
2022-11-27T18:30:48.042Z,9.57
2022-11-27T18:33:15.144Z,8.90
2022-11-27T18:35:43.005Z,9.67
2022-11-27T18:38:10.180Z,10.20
2022-11-27T18:40:41.253Z,8.40
2022-11-27T18:43:08.364Z,9.97
2022-11-27T18:45:35.595Z,10.50
2022-11-27T18:48:03.172Z,11.80
2022-11-27T18:50:30.243Z,13.73
2022-11-27T18:52:57.313Z,10.80
2022-11-27T18:55:24.335Z,12.23
2022-11-27T18:57:51.422Z,12.50
2022-11-27T19:00:18.724Z,10.93
2022-11-27T19:02:45.876Z,15.03
2022-11-27T19:05:12.955Z,10.33
2022-11-27T19:07:40.121Z,13.63
2022-11-27T19:10:07.669Z,15.97
2022-11-27T19:12:34.759Z,13.63
2022-11-27T19:15:01.847Z,13.10
2022-11-27T19:17:32.339Z,17.80
2022-11-27T19:19:59.765Z,15.07
2022-11-27T19:22:26.831Z,17.87
2022-11-27T19:24:53.885Z,14.87
2022-11-27T19:27:20.997Z,19.73
2022-11-27T19:29:48.873Z,14.67
2022-11-27T19:32:15.923Z,18.00
2022-11-27T19:34:43.223Z,14.80
2022-11-27T19:37:10.547Z,17.20
2022-11-27T19:39:37.619Z,17.43
2022-11-27T19:42:04.675Z,16.43
2022-11-27T19:44:31.777Z,20.27
2022-11-27T19:46:58.954Z,15.13
2022-11-27T19:49:26.729Z,15.87
2022-11-27T19:51:53.852Z,16.83
2022-11-27T19:54:21.769Z,14.60
2022-11-27T19:56:48.977Z,12.97
2022-11-27T19:59:16.019Z,16.13
2022-11-27T20:01:43.098Z,17.50
2022-11-27T20:04:11.299Z,16.03
2022-11-27T20:06:39.668Z,18.30
2022-11-27T20:09:07.206Z,17.80
2022-11-27T20:11:35.547Z,15.67
2022-11-27T20:14:04.200Z,23.00
2022-11-27T20:16:32.026Z,14.43
2022-11-27T20:18:59.227Z,16.30
2022-11-27T20:21:26.668Z,20.77
2022-11-27T20:23:54.491Z,15.73
2022-11-27T20:26:22.841Z,15.37
2022-11-27T20:28:50.425Z,13.70
2022-11-27T20:31:24.995Z,27.33
2022-11-27T20:33:53.650Z,14.10
2022-11-27T20:36:21.435Z,14.40
2022-11-27T20:38:48.676Z,17.17
2022-11-27T20:41:16.875Z,12.90
2022-11-27T20:43:44.359Z,18.57
2022-11-27T20:46:15.434Z,15.30
2022-11-27T20:48:42.956Z,14.67
2022-11-27T20:51:13.582Z,17.43
2022-11-27T20:53:40.884Z,14.93
2022-11-27T20:56:09.138Z,15.97
2022-11-27T20:58:36.886Z,15.47
2022-11-27T21:01:13.640Z,16.77
2022-11-27T21:03:40.783Z,16.67
2022-11-27T21:06:07.901Z,16.83
2022-11-27T21:08:35.017Z,24.03
2022-11-27T21:11:14.189Z,12.23
2022-11-27T21:13:41.304Z,18.57
2022-11-27T21:16:09.924Z,20.90
2022-11-27T21:18:37.152Z,16.73
2022-11-27T21:21:11.810Z,16.63
2022-11-27T21:23:39.333Z,18.50
2022-11-27T21:26:06.609Z,23.27
2022-11-27T21:28:34.378Z,19.93
2022-11-27T21:31:08.183Z,15.20
2022-11-27T21:33:35.432Z,20.27
2022-11-27T21:36:02.690Z,18.30
2022-11-27T21:38:29.821Z,17.53
2022-11-27T21:40:57.096Z,15.07
2022-11-27T21:43:24.218Z,17.73
2022-11-27T21:45:51.325Z,16.43
2022-11-27T21:48:18.423Z,18.73
2022-11-27T21:50:45.521Z,15.13
2022-11-27T21:53:12.625Z,14.07
2022-11-27T21:55:40.623Z,16.77
2022-11-27T21:58:07.944Z,15.13
2022-11-27T22:00:35.330Z,14.17
2022-11-27T22:03:02.438Z,13.60
2022-11-27T22:05:29.920Z,14.00
2022-11-27T22:07:56.973Z,15.73
2022-11-27T22:10:24.144Z,16.73
2022-11-27T22:12:51.171Z,12.10
2022-11-27T22:15:18.333Z,13.23
2022-11-27T22:17:45.386Z,13.97
2022-11-27T22:20:12.808Z,11.67
2022-11-27T22:22:39.928Z,13.70
2022-11-27T22:25:07.177Z,10.40
2022-11-27T22:27:34.261Z,12.37
2022-11-27T22:30:01.379Z,10.97
2022-11-27T22:32:28.517Z,14.17
2022-11-27T22:34:55.568Z,13.87
2022-11-27T22:37:22.653Z,9.20
2022-11-27T22:39:49.725Z,10.47
2022-11-27T22:42:16.779Z,13.57
2022-11-27T22:44:44.068Z,13.90
2022-11-27T22:47:11.337Z,10.83
2022-11-27T22:49:38.420Z,10.33
2022-11-27T22:52:05.646Z,7.93
2022-11-27T22:54:32.721Z,10.77
2022-11-27T22:56:59.779Z,13.63
2022-11-27T22:59:34.834Z,9.53
2022-11-27T23:02:02.891Z,11.27
2022-11-27T23:04:30.084Z,11.47
2022-11-27T23:06:57.181Z,10.07
2022-11-27T23:09:24.527Z,7.23
2022-11-27T23:11:51.694Z,11.23
2022-11-27T23:14:19.168Z,13.83
2022-11-27T23:16:46.326Z,11.50
2022-11-27T23:19:13.469Z,9.13
2022-11-27T23:21:40.559Z,9.47
2022-11-27T23:24:08.582Z,10.30
2022-11-27T23:26:35.897Z,11.97
2022-11-27T23:29:03.197Z,9.10
2022-11-27T23:31:35.441Z,11.03
2022-11-27T23:34:03.633Z,8.23
2022-11-27T23:36:31.350Z,10.67
2022-11-27T23:39:02.133Z,9.90
2022-11-27T23:41:29.356Z,10.40
2022-11-27T23:43:56.590Z,10.13
2022-11-27T23:46:26.119Z,9.60
2022-11-27T23:48:55.822Z,8.43
2022-11-27T23:51:24.499Z,11.10
2022-11-27T23:53:51.627Z,9.37
2022-11-27T23:56:20.838Z,8.03
2022-11-27T23:58:47.965Z,8.10
